createdAt,value
2022-11-28T00:01:30.368Z,5.77
2022-11-28T00:03:57.223Z,5.60
2022-11-28T00:06:26.966Z,5.43
2022-11-28T00:08:54.590Z,5.80
2022-11-28T00:11:22.830Z,5.60
2022-11-28T00:13:49.862Z,5.40
2022-11-28T00:16:21.437Z,5.60
2022-11-28T00:18:53.468Z,5.47
2022-11-28T00:21:20.649Z,5.80
2022-11-28T00:23:48.585Z,6.63
2022-11-28T00:26:22.763Z,5.63
2022-11-28T00:28:49.626Z,6.00
2022-11-28T00:31:22.266Z,5.83
2022-11-28T00:33:49.417Z,5.57
2022-11-28T00:36:16.420Z,5.20
2022-11-28T00:38:43.062Z,5.20
2022-11-28T00:41:15.501Z,5.97
2022-11-28T00:43:43.908Z,5.50
2022-11-28T00:46:11.439Z,4.93
2022-11-28T00:48:38.004Z,5.70
2022-11-28T00:51:09.235Z,6.07
2022-11-28T00:53:36.905Z,5.43
2022-11-28T00:56:07.781Z,5.83
2022-11-28T00:58:35.621Z,5.90
2022-11-28T01:01:12.007Z,5.30
2022-11-28T01:03:39.109Z,5.20
2022-11-28T01:06:06.763Z,5.90
2022-11-28T01:08:33.770Z,6.03
2022-11-28T01:11:00.596Z,5.30
2022-11-28T01:13:27.269Z,5.63
2022-11-28T01:15:54.162Z,5.60
2022-11-28T01:18:20.623Z,5.40
2022-11-28T01:20:47.146Z,5.90
2022-11-28T01:23:13.675Z,5.20
2022-11-28T01:25:40.127Z,6.60
2022-11-28T01:28:06.630Z,6.47
2022-11-28T01:30:33.789Z,6.00
2022-11-28T01:33:00.237Z,4.93
2022-11-28T01:35:26.659Z,5.60
2022-11-28T01:37:53.188Z,5.40
2022-11-28T01:40:19.730Z,5.20
2022-11-28T01:42:46.169Z,5.70
2022-11-28T01:45:25.141Z,5.20
2022-11-28T01:47:55.032Z,5.90
2022-11-28T01:50:22.668Z,6.40
2022-11-28T01:52:55.232Z,6.33
2022-11-28T01:55:27.204Z,5.77
2022-11-28T01:57:55.601Z,6.23
2022-11-28T02:00:22.931Z,6.10
2022-11-28T02:02:58.885Z,5.83
2022-11-28T02:05:25.554Z,6.10
2022-11-28T02:07:52.522Z,7.00
2022-11-28T02:10:32.550Z,5.90
2022-11-28T02:13:33.212Z,6.00
2022-11-28T02:16:12.352Z,6.37
2022-11-28T02:18:59.152Z,5.73
2022-11-28T02:21:53.440Z,6.57
2022-11-28T02:24:37.968Z,5.90
2022-11-28T02:27:32.099Z,6.03
2022-11-28T02:30:10.746Z,5.83
2022-11-28T02:32:44.966Z,6.57
2022-11-28T02:35:29.047Z,6.27
2022-11-28T02:38:13.883Z,6.73
2022-11-28T02:40:48.383Z,5.90
2022-11-28T02:43:20.630Z,6.50
2022-11-28T02:46:06.705Z,6.23
2022-11-28T02:48:45.783Z,6.33
2022-11-28T02:51:18.988Z,6.10
2022-11-28T02:53:46.582Z,6.93
2022-11-28T02:56:13.279Z,7.20
2022-11-28T02:58:39.974Z,7.53
2022-11-28T03:01:12.434Z,6.97
2022-11-28T03:03:47.944Z,7.10
2022-11-28T03:06:35.451Z,6.47
2022-11-28T03:09:20.581Z,7.07
2022-11-28T03:11:53.287Z,7.13
2022-11-28T03:14:28.364Z,6.97
2022-11-28T03:16:54.748Z,6.70
2022-11-28T03:19:33.225Z,6.80
2022-11-28T03:22:25.901Z,6.83
2022-11-28T03:25:09.397Z,6.70
2022-11-28T03:27:40.617Z,7.20
2022-11-28T03:30:19.402Z,6.80
2022-11-28T03:32:47.843Z,6.70
2022-11-28T03:35:19.359Z,7.00
2022-11-28T03:37:53.849Z,7.10
2022-11-28T03:40:27.823Z,7.80
2022-11-28T03:42:59.465Z,6.90
2022-11-28T03:45:30.326Z,6.87
2022-11-28T03:48:04.880Z,6.60
2022-11-28T03:50:42.048Z,7.43
2022-11-28T03:53:26.062Z,6.70
2022-11-28T03:56:08.010Z,6.50
2022-11-28T03:58:38.060Z,7.00
2022-11-28T04:01:14.316Z,6.83
2022-11-28T04:03:52.075Z,7.60
2022-11-28T04:06:44.589Z,6.27
2022-11-28T04:09:18.205Z,6.47
2022-11-28T04:11:51.837Z,7.40
2022-11-28T04:14:18.191Z,6.03
2022-11-28T04:16:55.666Z,7.40
2022-11-28T04:19:31.967Z,7.37
2022-11-28T04:22:03.388Z,7.20
2022-11-28T04:24:36.518Z,7.17
2022-11-28T04:27:08.545Z,7.20
2022-11-28T04:29:40.746Z,6.73
2022-11-28T04:32:09.209Z,7.10
2022-11-28T04:34:37.030Z,6.80
2022-11-28T04:37:09.820Z,6.97
2022-11-28T04:39:40.759Z,6.57
2022-11-28T04:42:31.024Z,7.50
2022-11-28T04:45:02.685Z,7.50
2022-11-28T04:47:29.733Z,6.43
2022-11-28T04:49:56.486Z,6.87
2022-11-28T04:52:27.884Z,7.00
2022-11-28T04:55:00.839Z,7.13
2022-11-28T04:57:34.127Z,6.83
2022-11-28T05:00:04.617Z,7.40
2022-11-28T05:02:32.710Z,7.73
2022-11-28T05:04:59.874Z,7.27
2022-11-28T05:07:26.333Z,7.10
2022-11-28T05:09:52.913Z,7.57
2022-11-28T05:12:19.396Z,7.60
2022-11-28T05:14:45.846Z,7.40
2022-11-28T05:17:13.166Z,7.63
2022-11-28T05:19:39.720Z,8.20
2022-11-28T05:22:06.415Z,7.93
2022-11-28T05:24:32.864Z,7.70
2022-11-28T05:26:59.287Z,7.43
2022-11-28T05:29:25.700Z,7.60
2022-11-28T05:31:52.189Z,7.57
2022-11-28T05:34:18.701Z,7.70
2022-11-28T05:36:45.127Z,7.43
2022-11-28T05:39:11.539Z,7.90
2022-11-28T05:41:37.984Z,8.10
2022-11-28T05:44:04.476Z,7.23
2022-11-28T05:46:30.901Z,8.27
2022-11-28T05:48:57.760Z,7.10
2022-11-28T05:51:24.453Z,8.30
2022-11-28T05:53:51.032Z,7.27
2022-11-28T05:56:18.849Z,7.93
2022-11-28T05:58:45.754Z,8.60
2022-11-28T06:01:31.805Z,7.90
2022-11-28T06:04:01.080Z,7.07
2022-11-28T06:06:29.933Z,7.97
2022-11-28T06:08:56.990Z,7.60
2022-11-28T06:11:26.147Z,7.57
2022-11-28T06:13:53.139Z,7.40
2022-11-28T06:16:27.841Z,7.27
2022-11-28T06:19:00.531Z,7.17
2022-11-28T06:21:29.245Z,7.67
2022-11-28T06:23:57.872Z,8.00
2022-11-28T06:26:25.911Z,7.23
2022-11-28T06:28:52.414Z,6.50
2022-11-28T06:31:24.589Z,7.37
2022-11-28T06:33:51.273Z,9.10
2022-11-28T06:36:19.040Z,7.70
2022-11-28T06:38:45.992Z,7.17
2022-11-28T06:41:15.124Z,7.50
2022-11-28T06:43:41.941Z,8.00
2022-11-28T06:46:16.140Z,9.67
2022-11-28T06:48:42.873Z,7.40
2022-11-28T06:51:09.440Z,8.10
2022-11-28T06:53:36.433Z,8.27
2022-11-28T06:56:14.242Z,7.33
2022-11-28T06:58:41.628Z,7.47
2022-11-28T07:01:14.537Z,8.00
2022-11-28T07:03:41.597Z,8.23
2022-11-28T07:06:09.054Z,8.23
2022-11-28T07:08:36.419Z,7.37
2022-11-28T07:11:11.279Z,7.67
2022-11-28T07:13:38.584Z,8.93
2022-11-28T07:16:05.634Z,7.40
2022-11-28T07:18:32.315Z,7.70
2022-11-28T07:20:58.944Z,8.77
2022-11-28T07:23:25.707Z,8.40
2022-11-28T07:25:58.478Z,8.17
2022-11-28T07:28:24.927Z,8.37
2022-11-28T07:31:00.699Z,7.60
2022-11-28T07:33:27.655Z,7.40
2022-11-28T07:35:54.138Z,7.10
2022-11-28T07:38:20.769Z,7.97
2022-11-28T07:40:47.194Z,9.90
2022-11-28T07:43:13.641Z,9.80
2022-11-28T07:45:59.334Z,10.27
2022-11-28T07:48:26.513Z,10.53
2022-11-28T07:50:52.989Z,10.40
2022-11-28T07:53:19.498Z,9.83
2022-11-28T07:55:46.013Z,10.73
2022-11-28T07:58:12.465Z,8.97
2022-11-28T08:00:38.980Z,8.47
2022-11-28T08:03:05.628Z,8.60
2022-11-28T08:05:33.076Z,8.13
2022-11-28T08:07:59.559Z,8.40
2022-11-28T08:10:26.232Z,7.47
2022-11-28T08:12:52.742Z,8.10
2022-11-28T08:15:19.169Z,8.10
2022-11-28T08:17:45.739Z,8.63
2022-11-28T08:20:12.496Z,7.50
2022-11-28T08:22:38.975Z,7.53
2022-11-28T08:25:05.772Z,7.33
2022-11-28T08:27:32.994Z,7.23
2022-11-28T08:29:59.433Z,6.90
2022-11-28T08:32:25.905Z,7.33
2022-11-28T08:34:52.385Z,10.90
2022-11-28T08:37:18.880Z,8.27
2022-11-28T08:39:45.627Z,9.67
2022-11-28T08:42:14.398Z,8.37
2022-11-28T08:44:40.778Z,11.43
2022-11-28T08:47:07.206Z,11.40
2022-11-28T08:49:36.506Z,10.10
2022-11-28T08:52:04.642Z,10.73
2022-11-28T08:54:31.565Z,7.70
2022-11-28T08:56:58.986Z,8.10
2022-11-28T08:59:25.444Z,7.70
2022-11-28T09:01:55.426Z,8.40
2022-11-28T09:04:23.793Z,7.20
2022-11-28T09:06:51.037Z,8.30
2022-11-28T09:09:17.676Z,10.60
2022-11-28T09:11:44.632Z,8.83
2022-11-28T09:14:11.511Z,8.13
2022-11-28T09:16:39.826Z,7.80
2022-11-28T09:19:09.085Z,7.47
2022-11-28T09:21:35.605Z,8.20
2022-11-28T09:24:02.060Z,7.80
2022-11-28T09:26:29.867Z,7.63
2022-11-28T09:28:56.347Z,8.20
2022-11-28T09:31:23.227Z,8.97
2022-11-28T09:33:49.838Z,7.80
2022-11-28T09:36:19.621Z,7.47
2022-11-28T09:38:46.272Z,8.50
2022-11-28T09:41:53.841Z,7.30
2022-11-28T09:44:29.258Z,8.20
2022-11-28T09:47:00.397Z,7.03
2022-11-28T09:49:40.592Z,7.77
2022-11-28T09:52:07.589Z,8.03
2022-11-28T09:54:48.030Z,8.13
2022-11-28T09:57:39.534Z,7.37
2022-11-28T10:00:16.799Z,7.63
2022-11-28T10:02:52.480Z,8.07
2022-11-28T10:05:36.105Z,8.07
2022-11-28T10:08:32.076Z,8.80
2022-11-28T10:11:05.004Z,7.47
2022-11-28T10:14:08.806Z,7.47
2022-11-28T10:17:10.986Z,7.90
2022-11-28T10:19:54.184Z,9.27
2022-11-28T10:22:33.935Z,8.17
2022-11-28T10:25:06.205Z,8.80
2022-11-28T10:27:36.156Z,8.30
2022-11-28T10:30:07.784Z,8.60
2022-11-28T10:32:42.389Z,8.70
2022-11-28T10:35:30.654Z,7.73
2022-11-28T10:37:57.208Z,8.03
2022-11-28T10:40:49.497Z,7.73
2022-11-28T10:43:34.489Z,8.33
2022-11-28T10:46:16.227Z,7.97
2022-11-28T10:49:02.933Z,8.03
2022-11-28T10:51:55.265Z,8.20
2022-11-28T10:54:52.896Z,9.20
2022-11-28T10:57:39.763Z,7.57
2022-11-28T11:00:12.367Z,7.47
2022-11-28T11:02:58.693Z,7.50
2022-11-28T11:05:28.218Z,8.93
2022-11-28T11:08:14.993Z,8.23
2022-11-28T11:11:00.045Z,8.30
2022-11-28T11:13:30.065Z,7.70
2022-11-28T11:16:03.415Z,8.37
2022-11-28T11:18:46.670Z,8.40
2022-11-28T11:21:17.221Z,8.47
2022-11-28T11:23:44.942Z,9.10
2022-11-28T11:26:25.655Z,8.17
2022-11-28T11:28:52.650Z,8.90
2022-11-28T11:31:27.844Z,7.83
2022-11-28T11:34:07.050Z,9.30
2022-11-28T11:36:36.278Z,7.97
2022-11-28T11:39:12.269Z,8.70
2022-11-28T11:41:44.118Z,8.37
2022-11-28T11:44:13.761Z,8.47
2022-11-28T11:47:00.870Z,8.03
2022-11-28T11:49:38.776Z,9.10
2022-11-28T11:52:19.931Z,9.77
2022-11-28T11:54:54.673Z,8.30
2022-11-28T11:57:45.815Z,8.50
2022-11-28T12:00:19.818Z,9.43
2022-11-28T12:02:51.970Z,8.80
2022-11-28T12:05:28.708Z,8.63
2022-11-28T12:08:03.372Z,8.30
2022-11-28T12:10:34.348Z,8.93
2022-11-28T12:13:02.672Z,8.10
2022-11-28T12:15:47.068Z,9.33
2022-11-28T12:18:52.042Z,8.53
2022-11-28T12:21:56.623Z,8.27
2022-11-28T12:24:34.001Z,9.43
2022-11-28T12:27:20.885Z,9.20
2022-11-28T12:30:06.031Z,9.60
2022-11-28T12:32:45.422Z,9.50
2022-11-28T12:35:40.061Z,9.00
2022-11-28T12:38:37.509Z,9.90
2022-11-28T12:41:37.175Z,8.27
2022-11-28T12:44:25.838Z,9.17
2022-11-28T12:47:38.962Z,9.27
2022-11-28T12:50:22.075Z,8.80
2022-11-28T12:53:14.874Z,8.93
2022-11-28T12:56:07.573Z,8.70
2022-11-28T12:58:36.398Z,8.50
2022-11-28T13:01:03.237Z,10.27
2022-11-28T13:03:55.334Z,8.90
2022-11-28T13:06:31.501Z,8.13
2022-11-28T13:09:18.954Z,8.50
2022-11-28T13:12:10.171Z,8.27
2022-11-28T13:14:42.565Z,9.80
2022-11-28T13:17:39.032Z,8.93
2022-11-28T13:20:23.590Z,9.00
2022-11-28T13:23:17.957Z,9.13
2022-11-28T13:26:02.531Z,8.73
2022-11-28T13:28:54.361Z,8.73
2022-11-28T13:31:24.432Z,9.73
2022-11-28T13:33:54.261Z,9.60
2022-11-28T13:39:40.187Z,8.63
2022-11-28T13:42:59.600Z,8.70
2022-11-28T13:45:25.144Z,8.70
2022-11-28T13:47:55.742Z,8.23
2022-11-28T13:50:22.913Z,7.87
2022-11-28T13:52:59.591Z,8.00
2022-11-28T13:56:07.206Z,8.63
2022-11-28T13:59:02.609Z,8.37
2022-11-28T14:01:31.914Z,8.23
2022-11-28T14:03:58.865Z,8.47
2022-11-28T14:06:27.735Z,7.53
2022-11-28T14:09:02.502Z,8.00
2022-11-28T14:11:41.197Z,7.83
2022-11-28T14:14:13.680Z,7.40
2022-11-28T14:16:40.170Z,7.53
2022-11-28T14:19:27.873Z,6.83
2022-11-28T14:22:09.056Z,7.43
2022-11-28T14:24:54.806Z,7.40
2022-11-28T14:27:26.430Z,7.80
2022-11-28T14:29:55.786Z,7.33
2022-11-28T14:32:36.956Z,7.10
2022-11-28T14:35:25.099Z,7.53
2022-11-28T14:37:55.089Z,7.83
2022-11-28T14:40:56.285Z,7.67
2022-11-28T14:43:28.365Z,7.20
2022-11-28T14:46:15.194Z,7.27
2022-11-28T14:49:02.708Z,7.47
2022-11-28T14:51:49.127Z,7.03
2022-11-28T14:54:42.371Z,6.80
2022-11-28T14:57:23.352Z,7.47
2022-11-28T14:59:51.091Z,7.67
2022-11-28T15:02:56.335Z,7.67
2022-11-28T15:05:29.820Z,7.50
2022-11-28T15:08:15.006Z,8.50
2022-11-28T15:11:02.745Z,8.60
2022-11-28T15:13:45.970Z,7.83
2022-11-28T15:16:14.718Z,7.77
2022-11-28T15:18:50.649Z,8.90
2022-11-28T15:21:19.623Z,8.67
2022-11-28T15:23:49.267Z,7.47
2022-11-28T15:26:22.082Z,7.70
2022-11-28T15:28:48.615Z,7.67
2022-11-28T15:31:23.108Z,7.97
2022-11-28T15:33:51.253Z,8.10
2022-11-28T15:36:38.256Z,9.40
2022-11-28T15:39:05.189Z,8.70
2022-11-28T15:41:31.766Z,7.63
2022-11-28T15:43:58.387Z,9.40
2022-11-28T15:46:34.723Z,9.60
2022-11-28T15:49:01.769Z,10.50
2022-11-28T15:51:31.375Z,9.77
2022-11-28T15:53:58.539Z,9.70
2022-11-28T15:56:26.005Z,10.20
2022-11-28T15:58:53.479Z,10.20
2022-11-28T16:01:24.096Z,9.67
2022-11-28T16:03:59.262Z,10.10
2022-11-28T16:06:30.553Z,9.50
2022-11-28T16:09:03.897Z,8.97
2022-11-28T16:11:31.629Z,9.70
2022-11-28T16:14:05.978Z,9.67
2022-11-28T16:16:36.475Z,9.70
2022-11-28T16:19:18.658Z,8.87
2022-11-28T16:21:56.057Z,10.17
2022-11-28T16:24:42.767Z,11.00
2022-11-28T16:27:31.566Z,10.63
2022-11-28T16:29:58.033Z,10.90
2022-11-28T16:32:37.932Z,10.00
2022-11-28T16:35:06.040Z,10.20
2022-11-28T16:37:33.023Z,11.13
2022-11-28T16:39:59.400Z,10.67
2022-11-28T16:42:25.915Z,11.30
2022-11-28T16:44:52.535Z,12.20
2022-11-28T16:47:29.660Z,10.80
2022-11-28T16:50:22.997Z,11.13
2022-11-28T16:52:52.139Z,11.20
2022-11-28T16:55:31.799Z,11.93
2022-11-28T16:58:07.379Z,12.23
2022-11-28T17:00:35.243Z,10.73
2022-11-28T17:03:01.976Z,12.37
2022-11-28T17:05:28.679Z,10.80
2022-11-28T17:07:55.515Z,11.30
2022-11-28T17:10:22.096Z,12.20
2022-11-28T17:12:48.637Z,11.73
2022-11-28T17:15:18.780Z,12.60
2022-11-28T17:17:45.205Z,12.27
2022-11-28T17:20:12.704Z,11.47
2022-11-28T17:22:45.364Z,12.43
2022-11-28T17:25:17.058Z,11.97
2022-11-28T17:27:43.868Z,12.53
2022-11-28T17:30:15.483Z,12.10
2022-11-28T17:32:41.992Z,11.87
2022-11-28T17:35:19.869Z,14.10
2022-11-28T17:37:46.307Z,12.83
2022-11-28T17:40:31.346Z,12.80
2022-11-28T17:42:57.820Z,13.13
2022-11-28T17:45:25.442Z,12.30
2022-11-28T17:47:51.945Z,13.20
2022-11-28T17:50:18.477Z,15.87
2022-11-28T17:52:44.926Z,17.53
2022-11-28T17:55:11.373Z,16.37
2022-11-28T17:57:37.905Z,14.73
2022-11-28T18:00:06.703Z,15.90
2022-11-28T18:02:33.199Z,14.97
2022-11-28T18:05:00.509Z,15.33
2022-11-28T18:07:27.047Z,14.77
2022-11-28T18:09:53.686Z,14.70
2022-11-28T18:12:21.075Z,14.33
2022-11-28T18:14:47.580Z,16.27
2022-11-28T18:17:14.135Z,15.37
2022-11-28T18:19:40.628Z,13.93
2022-11-28T18:22:08.573Z,14.30
2022-11-28T18:24:36.189Z,15.30
2022-11-28T18:27:02.761Z,16.33
2022-11-28T18:29:29.220Z,16.17
2022-11-28T18:31:55.694Z,14.83
2022-11-28T18:34:22.349Z,14.60
2022-11-28T18:36:48.869Z,13.60
2022-11-28T18:39:15.816Z,14.20
2022-11-28T18:41:42.789Z,15.03
2022-11-28T18:44:10.966Z,14.93
2022-11-28T18:46:39.195Z,14.37
2022-11-28T18:49:05.756Z,13.90
2022-11-28T18:51:34.493Z,13.93
2022-11-28T18:54:04.486Z,15.20
2022-11-28T18:56:31.533Z,14.83
2022-11-28T18:58:58.408Z,14.27
2022-11-28T19:01:32.752Z,14.23
2022-11-28T19:04:04.007Z,15.17
2022-11-28T19:06:31.575Z,15.80
2022-11-28T19:09:01.143Z,16.77
2022-11-28T19:11:29.483Z,17.00
2022-11-28T19:13:56.614Z,15.77
2022-11-28T19:16:26.137Z,16.17
2022-11-28T19:18:53.262Z,16.07
2022-11-28T19:21:22.656Z,16.80
2022-11-28T19:23:50.221Z,15.83
2022-11-28T19:26:19.615Z,16.33
2022-11-28T19:28:46.934Z,15.13
2022-11-28T19:31:21.743Z,15.40
2022-11-28T19:34:13.879Z,15.30
2022-11-28T19:36:51.242Z,15.40
2022-11-28T19:39:19.495Z,14.40
2022-11-28T19:41:46.765Z,14.80
2022-11-28T19:44:14.360Z,13.67
2022-11-28T19:46:41.930Z,14.33
2022-11-28T19:49:14.300Z,14.77
2022-11-28T19:51:40.853Z,14.73
2022-11-28T19:54:07.449Z,14.43
2022-11-28T19:56:34.344Z,14.80
2022-11-28T19:59:00.836Z,16.07
2022-11-28T20:01:28.308Z,15.80
2022-11-28T20:03:54.969Z,23.40
2022-11-28T20:06:28.175Z,17.10
2022-11-28T20:08:59.389Z,15.70
2022-11-28T20:11:31.996Z,14.17
2022-11-28T20:14:01.171Z,14.70
2022-11-28T20:16:29.787Z,15.03
2022-11-28T20:18:56.999Z,15.90
2022-11-28T20:21:23.695Z,14.90
2022-11-28T20:23:52.654Z,15.00
2022-11-28T20:26:21.443Z,13.70
2022-11-28T20:28:48.510Z,15.20
2022-11-28T20:31:22.673Z,14.17
2022-11-28T20:33:51.150Z,14.03
2022-11-28T20:36:20.366Z,14.27
2022-11-28T20:38:47.378Z,15.17
2022-11-28T20:41:16.534Z,15.37
2022-11-28T20:43:43.472Z,14.47
2022-11-28T20:46:16.761Z,15.93
2022-11-28T20:48:45.827Z,14.30
2022-11-28T20:51:15.907Z,15.03
2022-11-28T20:53:42.635Z,14.30
2022-11-28T20:56:13.364Z,15.80
2022-11-28T20:58:42.860Z,16.07
2022-11-28T21:01:14.889Z,14.83
2022-11-28T21:03:41.710Z,14.87
2022-11-28T21:06:11.300Z,15.93
2022-11-28T21:08:38.663Z,15.10
2022-11-28T21:11:10.931Z,15.60
2022-11-28T21:13:37.770Z,14.90
2022-11-28T21:16:09.699Z,15.70
2022-11-28T21:18:38.053Z,15.47
2022-11-28T21:21:11.930Z,15.00
2022-11-28T21:23:39.000Z,15.10
2022-11-28T21:26:08.798Z,14.87
2022-11-28T21:28:41.254Z,15.33
2022-11-28T21:31:10.853Z,16.47
2022-11-28T21:33:37.468Z,14.10
2022-11-28T21:36:06.129Z,16.40
2022-11-28T21:38:33.255Z,14.90
2022-11-28T21:41:00.665Z,15.13
2022-11-28T21:43:31.373Z,15.10
2022-11-28T21:46:05.606Z,15.03
2022-11-28T21:48:33.399Z,14.83
2022-11-28T21:51:00.835Z,13.97
2022-11-28T21:53:28.438Z,14.80
2022-11-28T21:55:55.545Z,14.27
2022-11-28T21:58:26.676Z,13.73
2022-11-28T22:01:01.885Z,12.83
2022-11-28T22:03:30.431Z,13.90
2022-11-28T22:06:05.147Z,14.50
2022-11-28T22:08:32.218Z,14.20
2022-11-28T22:11:03.634Z,14.57
2022-11-28T22:13:31.583Z,14.70
2022-11-28T22:15:58.496Z,14.90
2022-11-28T22:18:25.002Z,14.00
2022-11-28T22:20:53.203Z,13.57
2022-11-28T22:23:19.773Z,16.30
2022-11-28T22:25:53.107Z,25.17
2022-11-28T22:28:20.350Z,19.30
2022-11-28T22:30:47.256Z,15.30
2022-11-28T22:33:13.708Z,14.23
2022-11-28T22:35:40.252Z,16.00
2022-11-28T22:38:06.747Z,13.57
2022-11-28T22:40:33.161Z,14.83
2022-11-28T22:43:00.010Z,14.27
2022-11-28T22:45:26.571Z,14.07
2022-11-28T22:47:53.002Z,14.77
2022-11-28T22:50:19.511Z,15.20
2022-11-28T22:52:46.029Z,15.30
2022-11-28T22:55:12.719Z,13.90
2022-11-28T22:57:39.234Z,16.10
2022-11-28T23:00:08.789Z,15.40
2022-11-28T23:02:35.956Z,15.90
2022-11-28T23:05:02.633Z,15.70
2022-11-28T23:07:29.250Z,16.17
2022-11-28T23:09:55.840Z,15.50
2022-11-28T23:12:22.288Z,14.63
2022-11-28T23:14:49.053Z,14.23
2022-11-28T23:17:15.587Z,14.70
2022-11-28T23:19:42.388Z,17.17
2022-11-28T23:22:08.872Z,15.60
2022-11-28T23:24:35.505Z,14.93
2022-11-28T23:27:01.945Z,15.17
2022-11-28T23:29:28.406Z,16.63
2022-11-28T23:31:54.914Z,15.93
2022-11-28T23:34:21.457Z,16.50
2022-11-28T23:36:48.430Z,15.60
2022-11-28T23:39:17.711Z,14.90
2022-11-28T23:41:45.574Z,14.90
2022-11-28T23:44:13.684Z,14.20
2022-11-28T23:46:41.019Z,13.53
2022-11-28T23:49:07.699Z,14.00
2022-11-28T23:51:34.490Z,14.57
2022-11-28T23:54:01.077Z,13.90
2022-11-28T23:56:30.978Z,14.97
2022-11-28T23:59:00.997Z,15.10
